Sparta, IL

7:29 PM CDT on July 27, 2016 (GMT -0500)
Sparta Community-Hunter | | Change Station

Elev 538 ft 38.15 °N, 89.70 °W | Updated 14 minutes ago

Mostly Cloudy
Mostly Cloudy
83 °F
Feels Like 91 °F
N
4
Wind Variable Wind from ESE

Today
High -- | Low -- °F
--% Chance of Precip.
Yesterday
High -- | Low -- °F
Precip. -- in
Pressure 29.91 in
Visibility 10.0 miles
Clouds Mostly Cloudy 12000 ft
Heat Index 91 °F
Dew Point 77 °F
Humidity 84%
Rainfall 0.08 in
Snow Depth Not available.
5:57 AM 8:12 PM
Last Quarter, 38% visible
METAR KSAR 280015Z AUTO 12003KT 10SM BKN120 28/25 A2991 RMK AO2 T02810251
Pressure 29.91 in
Visibility 10.0 miles
Clouds Mostly Cloudy 12000 ft
Heat Index 91 °F
Dew Point 77 °F
Humidity 84%
Rainfall 0.08 in
Snow Depth Not available.
5:57 AM 8:12 PM
Last Quarter, 38% visible
METAR KSAR 280015Z AUTO 12003KT 10SM BKN120 28/25 A2991 RMK AO2 T02810251

10-Day Weather Forecast

Almanac

Astronomy

Jul. 27, 2016 Rise Set
Actual Time
Civil Twilight
Nautical Twilight
Astronomical Twilight
Moon
Length of Visible Light
Length of Day
Tomorrow will be .
, % of the Moon is Illuminated

Today's Extremes

State Highs State Lows

Community

WunderPhotos

Upload Photos

1,927,975 photos uploaded!

WunderBlog® & News

Nearby

Air Quality

  Air Quality AQ Index Pollutant
Not available.

Snow Depth

Station Depth Elevation

Earthquake Activity

City Distance Mag. Time & Date
Minimum magnitude displayed is 2.5.

Coastal Water Temperatures

Place Temperature

Stations

Nearby Weather Stations

Station Location Temp. Windchill Dew Point Humidity Wind Precip. Elev Updated Type
                   

Watches & Warnings

There are currently no watches in effect.